Time;durP1;ratioP1;P1;durP2;ratioP2;P2;SDS_P1;SDS_P2;PMS_P1;PMS_P2;Temp;Humidity;BMP_temperature;BMP_pressure;BME280_temperature;BME280_humidity;BME280_pressure;Samples;Min_cycle;Max_cycle;Signal;HPM_P1;HPM_P2
2023/08/29 00:02:13;;;;;;;445.38;413.52;;;12.20;82.20;;;;;;4988590;28;20117;-59
2023/08/29 00:04:39;;;;;;;433.85;401.58;;;12.20;82.10;;;;;;5021051;28;20554;-59
2023/08/29 00:07:05;;;;;;;421.25;389.45;;;12.20;82.20;;;;;;4973041;28;20050;-59
2023/08/29 00:09:32;;;;;;;437.23;404.20;;;12.10;82.30;;;;;;5000259;28;20096;-59
2023/08/29 00:11:57;;;;;;;426.15;393.83;;;12.10;82.50;;;;;;4989089;28;20109;-59
2023/08/29 00:14:23;;;;;;;390.20;360.33;;;12.10;82.70;;;;;;4988272;28;20078;-59
2023/08/29 00:16:49;;;;;;;507.35;469.35;;;12.10;82.70;;;;;;4973487;28;20481;-59
2023/08/29 00:19:15;;;;;;;429.15;396.33;;;12.10;82.80;;;;;;4987413;28;20054;-59
2023/08/29 00:21:41;;;;;;;434.80;403.95;;;12.10;82.90;;;;;;4987765;28;20116;-59
2023/08/29 00:24:08;;;;;;;442.65;410.33;;;12.10;82.90;;;;;;4973741;28;20179;-60
2023/08/29 00:26:34;;;;;;;405.35;375.65;;;12.10;82.80;;;;;;4974663;28;20480;-59
2023/08/29 00:28:59;;;;;;;431.67;399.98;;;12.00;82.70;;;;;;4984182;28;20050;-59
2023/08/29 00:31:25;;;;;;;412.25;382.23;;;12.00;82.80;;;;;;4987642;28;20436;-59
2023/08/29 00:33:53;;;;;;;407.50;378.27;;;12.00;82.80;;;;;;4987149;28;20051;-59
2023/08/29 00:36:19;;;;;;;390.08;360.80;;;12.00;82.70;;;;;;4976732;28;20053;-59
2023/08/29 00:38:44;;;;;;;433.83;400.08;;;12.00;82.80;;;;;;4984557;28;20078;-59
2023/08/29 00:41:10;;;;;;;429.95;397.45;;;12.00;82.70;;;;;;4989123;28;20054;-58
2023/08/29 00:43:37;;;;;;;338.15;312.52;;;12.00;82.70;;;;;;4987569;28;20054;-59
2023/08/29 00:46:09;;;;;;;397.92;367.50;;;12.00;82.70;;;;;;4973488;28;20061;-59
2023/08/29 00:48:35;;;;;;;413.63;384.33;;;12.00;82.60;;;;;;4962282;28;20050;-59
2023/08/29 00:51:01;;;;;;;388.45;359.65;;;12.00;82.60;;;;;;4976986;28;20050;-59
2023/08/29 00:53:27;;;;;;;406.98;377.52;;;12.00;82.70;;;;;;4968209;28;20528;-59
2023/08/29 00:55:53;;;;;;;420.83;390.15;;;12.00;82.80;;;;;;4974226;28;20054;-59
2023/08/29 00:58:19;;;;;;;417.33;386.27;;;12.10;82.80;;;;;;4954578;28;20090;-59
2023/08/29 01:00:46;;;;;;;455.33;421.30;;;12.10;82.80;;;;;;4972938;28;20090;-59
2023/08/29 01:03:11;;;;;;;431.67;399.95;;;12.10;83.00;;;;;;4971844;28;20070;-59
2023/08/29 01:05:38;;;;;;;464.25;429.40;;;12.10;83.00;;;;;;4988842;28;20050;-59
2023/08/29 01:08:04;;;;;;;412.95;382.50;;;12.10;82.90;;;;;;4972406;28;20105;-58
2023/08/29 01:10:57;;;;;;;423.95;393.10;;;12.10;82.90;;;;;;4981581;28;20078;-59
2023/08/29 01:13:44;;;;;;;323.55;299.30;;;12.10;82.90;;;;;;4973179;28;20054;-59
2023/08/29 01:16:12;;;;;;;337.70;312.95;;;12.10;83.00;;;;;;4980773;28;20081;-59
2023/08/29 01:18:39;;;;;;;360.02;333.55;;;12.10;82.90;;;;;;4974307;28;20057;-59
2023/08/29 01:21:37;;;;;;;343.67;317.52;;;12.00;82.90;;;;;;4977482;28;20383;-59
2023/08/29 01:24:06;;;;;;;279.88;259.13;;;12.00;82.80;;;;;;4986889;28;20589;-59
2023/08/29 01:26:33;;;;;;;380.80;353.05;;;12.00;82.90;;;;;;4974855;28;20517;-59
2023/08/29 01:29:02;;;;;;;402.27;371.95;;;12.10;83.00;;;;;;5000075;28;20570;-59
2023/08/29 01:31:29;;;;;;;349.67;323.50;;;12.10;83.00;;;;;;4988662;28;20046;-59
2023/08/29 01:33:58;;;;;;;407.60;378.40;;;12.10;82.90;;;;;;4990961;28;20042;-59
2023/08/29 01:36:28;;;;;;;339.50;313.85;;;12.10;82.80;;;;;;4979994;28;20836;-58
2023/08/29 01:38:54;;;;;;;369.58;342.42;;;12.00;82.80;;;;;;4988646;28;20053;-59
2023/08/29 01:41:20;;;;;;;413.50;382.48;;;12.00;82.80;;;;;;4984440;28;20515;-58
2023/08/29 01:43:45;;;;;;;395.02;367.05;;;12.00;82.80;;;;;;4980140;28;20053;-59
2023/08/29 01:46:11;;;;;;;414.95;385.63;;;12.00;82.70;;;;;;4982579;28;20096;-59
2023/08/29 01:48:39;;;;;;;342.08;317.17;;;12.00;82.70;;;;;;4978429;28;20481;-59
2023/08/29 01:51:05;;;;;;;397.85;368.88;;;12.00;82.60;;;;;;4994857;28;20129;-59
2023/08/29 01:53:31;;;;;;;371.08;343.02;;;12.00;82.70;;;;;;4974468;28;20057;-59
2023/08/29 01:55:59;;;;;;;404.90;375.00;;;11.90;82.80;;;;;;4971568;28;20047;-59
2023/08/29 01:58:26;;;;;;;439.92;407.70;;;11.90;82.80;;;;;;4956105;28;20287;-59
2023/08/29 02:00:52;;;;;;;369.77;342.65;;;11.90;82.90;;;;;;4972403;28;20066;-59
2023/08/29 02:03:18;;;;;;;387.75;359.15;;;11.90;82.90;;;;;;4986675;28;20062;-59
2023/08/29 02:05:44;;;;;;;412.60;381.88;;;11.90;83.00;;;;;;4990840;28;20050;-59
2023/08/29 02:08:09;;;;;;;412.70;382.27;;;11.90;83.00;;;;;;4975716;28;20121;-59
2023/08/29 02:10:35;;;;;;;375.67;348.08;;;11.90;83.00;;;;;;4984991;28;20078;-59
2023/08/29 02:13:01;;;;;;;408.67;378.70;;;11.80;83.00;;;;;;4974626;28;20050;-59
2023/08/29 02:15:26;;;;;;;351.30;325.30;;;11.70;83.10;;;;;;4999511;28;20270;-59
2023/08/29 02:17:53;;;;;;;391.58;363.65;;;11.70;83.10;;;;;;4989860;28;20045;-59
2023/08/29 02:20:19;;;;;;;321.35;296.40;;;11.70;83.00;;;;;;5002208;28;20045;-59
2023/08/29 02:22:44;;;;;;;286.90;265.38;;;11.70;83.00;;;;;;5008153;28;20041;-59
2023/08/29 02:25:10;;;;;;;317.77;294.10;;;11.60;83.00;;;;;;5010875;28;20397;-59
2023/08/29 02:27:36;;;;;;;340.00;314.85;;;11.50;83.00;;;;;;4994321;28;20042;-59
2023/08/29 02:30:04;;;;;;;331.80;307.95;;;11.50;83.30;;;;;;5010339;28;20061;-59
2023/08/29 02:32:31;;;;;;;353.67;329.83;;;11.50;83.20;;;;;;5007782;28;20042;-59
2023/08/29 02:34:56;;;;;;;299.63;277.40;;;11.50;83.00;;;;;;5010608;28;20309;-59
2023/08/29 02:37:22;;;;;;;279.42;258.17;;;11.50;83.00;;;;;;4989152;28;20046;-59
2023/08/29 02:39:48;;;;;;;312.88;289.30;;;11.50;83.30;;;;;;4999421;28;20095;-59
2023/08/29 02:42:13;;;;;;;251.77;232.18;;;11.50;83.40;;;;;;5008477;28;20041;-59
2023/08/29 02:44:39;;;;;;;233.82;216.07;;;11.50;83.40;;;;;;5008428;28;20057;-59
2023/08/29 02:47:05;;;;;;;264.00;244.13;;;11.50;83.20;;;;;;4989803;28;20058;-59
2023/08/29 02:49:31;;;;;;;194.80;180.93;;;11.50;83.00;;;;;;4989581;28;20050;-59
2023/08/29 02:51:56;;;;;;;299.52;279.23;;;11.40;82.70;;;;;;4991191;28;20630;-59
2023/08/29 02:54:22;;;;;;;186.23;173.55;;;11.20;82.30;;;;;;5000386;28;20053;-59
2023/08/29 02:56:48;;;;;;;125.13;116.50;;;11.10;82.00;;;;;;4987809;28;20357;-59
2023/08/29 02:59:14;;;;;;;147.38;137.30;;;10.90;81.80;;;;;;5006037;28;20104;-59
2023/08/29 03:01:39;;;;;;;103.32;96.18;;;10.70;81.80;;;;;;4990034;28;20054;-60
2023/08/29 03:04:05;;;;;;;116.15;108.03;;;10.60;81.90;;;;;;5005728;28;20245;-59
2023/08/29 03:06:31;;;;;;;224.15;210.00;;;10.60;82.10;;;;;;4995058;28;20116;-59
2023/08/29 03:08:56;;;;;;;127.43;118.03;;;10.50;81.90;;;;;;5007682;28;20444;-59
2023/08/29 03:11:22;;;;;;;45.78;42.33;;;10.40;81.90;;;;;;4996054;28;20133;-59
2023/08/29 03:13:48;;;;;;;70.25;65.35;;;10.30;82.10;;;;;;4989380;28;20081;-59
2023/08/29 03:16:14;;;;;;;53.78;50.03;;;10.30;82.00;;;;;;4982481;28;20046;-60
2023/08/29 03:18:40;;;;;;;152.38;142.35;;;10.20;82.00;;;;;;4997081;28;20045;-59
2023/08/29 03:21:07;;;;;;;233.55;218.70;;;10.20;81.80;;;;;;5009652;28;20052;-59
2023/08/29 03:23:35;;;;;;;61.35;56.88;;;10.10;81.80;;;;;;5008384;28;20057;-59
2023/08/29 03:26:07;;;;;;;67.25;62.50;;;10.10;81.90;;;;;;5009654;28;20089;-59
2023/08/29 03:28:36;;;;;;;20.48;19.08;;;10.10;82.00;;;;;;4997831;28;20060;-59
2023/08/29 03:31:13;;;;;;;25.30;23.38;;;10.10;82.00;;;;;;5009070;28;20054;-60
2023/08/29 03:33:40;;;;;;;29.40;27.17;;;10.10;82.20;;;;;;5002145;28;20058;-60
2023/08/29 03:36:07;;;;;;;73.32;67.80;;;10.10;82.30;;;;;;4992959;28;20083;-60
2023/08/29 03:38:38;;;;;;;37.05;34.08;;;10.10;82.30;;;;;;5001239;28;20058;-59
2023/08/29 03:41:05;;;;;;;24.52;22.55;;;10.10;82.00;;;;;;5009310;28;20500;-59
2023/08/29 03:43:32;;;;;;;33.03;30.63;;;10.00;82.10;;;;;;5008401;28;20150;-59
2023/08/29 03:46:05;;;;;;;47.80;44.20;;;10.00;82.10;;;;;;5009055;28;20049;-59
2023/08/29 03:48:31;;;;;;;44.45;40.88;;;10.00;81.90;;;;;;4981277;28;20088;-59
2023/08/29 03:51:06;;;;;;;34.55;32.08;;;9.90;81.90;;;;;;5009257;28;20073;-59
2023/08/29 03:53:33;;;;;;;22.90;21.17;;;9.90;81.80;;;;;;4988560;28;20129;-59
2023/08/29 03:56:02;;;;;;;45.13;41.60;;;9.80;81.80;;;;;;4991998;28;20047;-59
2023/08/29 03:58:29;;;;;;;39.03;36.15;;;9.80;81.90;;;;;;4991685;28;20489;-59
2023/08/29 04:00:55;;;;;;;35.97;33.30;;;9.70;82.00;;;;;;4992606;28;20166;-59
2023/08/29 04:03:21;;;;;;;45.47;41.70;;;9.80;82.20;;;;;;4990318;28;20045;-60
2023/08/29 04:05:47;;;;;;;53.83;49.78;;;9.80;82.50;;;;;;5009122;28;20100;-59
2023/08/29 04:08:13;;;;;;;52.17;48.42;;;9.80;82.90;;;;;;4986496;28;20054;-59
2023/08/29 04:10:39;;;;;;;59.55;54.83;;;10.00;83.30;;;;;;4988080;28;20050;-59
2023/08/29 04:13:06;;;;;;;46.47;42.75;;;10.00;83.70;;;;;;4989618;28;20072;-59
2023/08/29 04:15:35;;;;;;;36.00;33.10;;;10.10;83.70;;;;;;4996103;28;20577;-59
2023/08/29 04:18:01;;;;;;;77.72;72.30;;;10.20;83.90;;;;;;4981165;28;20049;-59
2023/08/29 04:20:28;;;;;;;52.28;48.25;;;10.30;84.20;;;;;;4980917;28;20560;-59
2023/08/29 04:22:54;;;;;;;67.93;62.72;;;10.30;83.90;;;;;;4977619;28;20403;-59
2023/08/29 04:25:21;;;;;;;71.00;65.47;;;10.40;84.10;;;;;;4972974;28;20051;-59
2023/08/29 04:27:48;;;;;;;67.65;62.10;;;10.40;84.20;;;;;;4968365;28;20046;-59
2023/08/29 04:30:14;;;;;;;87.78;81.10;;;10.50;84.40;;;;;;4988370;28;20054;-59
2023/08/29 04:32:40;;;;;;;93.20;85.68;;;10.60;84.60;;;;;;4987514;28;20046;-59
2023/08/29 04:35:06;;;;;;;86.90;80.00;;;10.70;84.80;;;;;;5000479;28;20056;-59
2023/08/29 04:37:33;;;;;;;101.80;93.47;;;10.80;84.90;;;;;;4966745;28;20048;-59
2023/08/29 04:39:59;;;;;;;86.18;79.78;;;10.90;84.70;;;;;;4997538;28;20050;-59
2023/08/29 04:42:25;;;;;;;118.75;109.65;;;11.00;84.50;;;;;;5007545;28;20052;-59
2023/08/29 04:44:53;;;;;;;135.27;124.93;;;11.00;84.40;;;;;;5007272;28;20125;-59
2023/08/29 04:47:20;;;;;;;206.00;191.10;;;11.00;84.20;;;;;;4973714;28;20046;-59
2023/08/29 04:49:46;;;;;;;169.52;156.02;;;11.00;84.10;;;;;;4998711;28;20432;-59
2023/08/29 04:52:11;;;;;;;144.95;133.80;;;11.10;84.40;;;;;;4987806;28;20053;-59
2023/08/29 04:54:37;;;;;;;177.60;164.07;;;11.10;84.60;;;;;;4998034;28;20042;-59
2023/08/29 04:57:04;;;;;;;143.20;131.90;;;11.10;84.80;;;;;;4987410;28;20046;-59
2023/08/29 04:59:30;;;;;;;207.85;192.50;;;11.10;84.80;;;;;;5002726;28;20046;-59
2023/08/29 05:01:55;;;;;;;201.88;186.65;;;11.10;84.80;;;;;;4987904;28;20089;-59
2023/08/29 05:04:21;;;;;;;196.57;181.75;;;11.10;84.80;;;;;;4984941;28;20058;-59
2023/08/29 05:06:47;;;;;;;218.30;202.25;;;11.10;84.90;;;;;;4959268;28;20034;-59
2023/08/29 05:09:13;;;;;;;157.07;145.70;;;11.10;84.80;;;;;;4991831;28;20043;-59
2023/08/29 05:11:38;;;;;;;82.85;75.82;;;11.10;84.70;;;;;;4978662;28;20470;-59
2023/08/29 05:14:04;;;;;;;97.70;90.07;;;11.10;84.60;;;;;;4988400;28;20065;-59
2023/08/29 05:16:32;;;;;;;123.10;113.85;;;11.10;84.50;;;;;;4980850;28;20415;-59
2023/08/29 05:18:58;;;;;;;155.55;143.95;;;11.10;84.40;;;;;;4997102;28;20459;-59
2023/08/29 05:21:24;;;;;;;125.45;116.20;;;11.10;84.20;;;;;;4974951;28;20584;-59
2023/08/29 05:23:50;;;;;;;125.82;116.97;;;11.00;83.80;;;;;;4987903;28;20054;-59
2023/08/29 05:26:15;;;;;;;67.25;62.53;;;10.90;83.60;;;;;;4965254;28;20060;-59
2023/08/29 05:28:41;;;;;;;87.18;80.55;;;10.80;83.30;;;;;;4968572;28;20086;-59
2023/08/29 05:31:07;;;;;;;94.40;87.57;;;10.70;83.20;;;;;;4978403;28;20054;-59
2023/08/29 05:33:33;;;;;;;86.45;80.68;;;10.60;83.20;;;;;;4982394;28;20495;-59
2023/08/29 05:35:59;;;;;;;44.85;41.63;;;10.50;83.00;;;;;;4976427;28;20401;-60
2023/08/29 05:38:25;;;;;;;49.53;46.03;;;10.40;83.00;;;;;;4968558;28;20051;-59
2023/08/29 05:40:52;;;;;;;57.70;53.38;;;10.30;83.00;;;;;;4991233;28;20093;-59
2023/08/29 05:43:18;;;;;;;39.38;36.40;;;10.30;82.90;;;;;;4984993;28;20050;-59
2023/08/29 05:45:43;;;;;;;45.58;42.38;;;10.20;82.90;;;;;;4987091;28;20053;-60
2023/08/29 05:48:09;;;;;;;36.72;34.17;;;10.20;82.90;;;;;;4984663;28;20080;-59
2023/08/29 05:50:35;;;;;;;42.22;39.22;;;10.20;83.00;;;;;;4983147;28;20577;-59
2023/08/29 05:53:00;;;;;;;59.40;55.03;;;10.20;83.20;;;;;;4988820;28;20050;-59
2023/08/29 05:55:26;;;;;;;108.25;100.32;;;10.30;83.50;;;;;;4988984;28;20483;-59
2023/08/29 05:57:52;;;;;;;120.22;111.22;;;10.40;83.80;;;;;;4980834;28;20409;-59
2023/08/29 06:00:19;;;;;;;172.43;160.20;;;10.60;84.30;;;;;;4973658;28;20085;-59
2023/08/29 06:02:45;;;;;;;189.90;176.48;;;10.80;84.30;;;;;;4975860;28;20043;-59
2023/08/29 06:05:10;;;;;;;102.32;94.55;;;11.00;84.60;;;;;;4991567;28;20057;-60
2023/08/29 06:07:38;;;;;;;182.63;169.68;;;11.10;84.50;;;;;;4958679;28;20054;-59
2023/08/29 06:10:06;;;;;;;219.20;203.77;;;11.20;84.30;;;;;;4988842;28;20055;-60
2023/08/29 06:12:32;;;;;;;289.67;265.50;;;11.40;84.20;;;;;;4972508;28;20046;-59
2023/08/29 06:14:57;;;;;;;281.55;261.98;;;11.50;84.00;;;;;;4971934;28;20113;-59
2023/08/29 06:17:23;;;;;;;241.95;224.25;;;11.70;84.00;;;;;;4971231;28;20053;-59
2023/08/29 06:19:49;;;;;;;270.70;250.82;;;11.90;84.00;;;;;;4974021;28;20051;-59
2023/08/29 06:22:14;;;;;;;293.58;271.85;;;12.00;83.90;;;;;;4972675;28;20517;-59
2023/08/29 06:24:40;;;;;;;362.45;335.23;;;12.10;83.90;;;;;;4993838;28;20618;-59
2023/08/29 06:27:06;;;;;;;415.02;385.60;;;12.30;83.60;;;;;;4964293;28;20048;-60
2023/08/29 06:29:32;;;;;;;357.88;332.20;;;12.40;83.50;;;;;;4987531;28;20129;-60
2023/08/29 06:31:58;;;;;;;405.55;375.42;;;12.50;83.30;;;;;;4989497;28;20516;-59
2023/08/29 06:34:24;;;;;;;408.30;377.15;;;12.50;83.20;;;;;;4980211;28;20066;-60
2023/08/29 06:36:50;;;;;;;412.58;382.83;;;12.70;83.10;;;;;;4972290;28;20065;-60
2023/08/29 06:39:16;;;;;;;435.75;403.90;;;12.80;83.00;;;;;;4998165;28;20568;-59
2023/08/29 06:41:42;;;;;;;448.05;415.50;;;12.90;82.90;;;;;;4990527;28;20077;-59
2023/08/29 06:44:08;;;;;;;458.23;426.05;;;12.90;82.90;;;;;;4999774;28;20504;-59
2023/08/29 06:46:33;;;;;;;508.00;470.92;;;13.00;82.80;;;;;;4996237;28;20479;-59
2023/08/29 06:48:59;;;;;;;505.88;467.98;;;13.10;82.80;;;;;;4984492;28;20416;-59
2023/08/29 06:51:25;;;;;;;527.90;487.23;;;13.20;82.80;;;;;;4995825;28;20050;-59
2023/08/29 06:53:51;;;;;;;522.13;482.35;;;13.30;82.80;;;;;;4989971;28;20485;-59
2023/08/29 06:56:18;;;;;;;525.50;485.20;;;13.40;82.80;;;;;;4979466;28;20129;-59
2023/08/29 06:58:44;;;;;;;550.53;507.63;;;13.50;82.60;;;;;;4993993;28;20046;-59
2023/08/29 07:01:09;;;;;;;580.67;534.90;;;13.60;82.40;;;;;;4991328;28;20054;-59
2023/08/29 07:03:35;;;;;;;561.92;518.47;;;13.70;82.50;;;;;;4998587;28;20038;-59
2023/08/29 07:06:01;;;;;;;520.50;480.63;;;13.90;82.40;;;;;;5010464;28;20049;-59
2023/08/29 07:08:27;;;;;;;570.05;523.20;;;13.90;82.40;;;;;;4993749;28;20049;-59
2023/08/29 07:10:52;;;;;;;580.53;532.30;;;14.00;82.30;;;;;;4996350;28;20049;-60
2023/08/29 07:13:18;;;;;;;657.70;601.78;;;14.20;82.20;;;;;;5003345;28;20062;-59
2023/08/29 07:15:44;;;;;;;662.78;603.92;;;14.30;82.20;;;;;;5008746;28;20046;-59
2023/08/29 07:18:10;;;;;;;581.20;532.50;;;14.40;81.80;;;;;;4991628;28;20049;-59
2023/08/29 07:20:37;;;;;;;684.63;625.05;;;14.40;81.60;;;;;;5004462;28;20053;-60
2023/08/29 07:23:03;;;;;;;700.17;635.08;;;14.50;81.50;;;;;;4992688;28;20092;-59
2023/08/29 07:25:43;;;;;;;642.58;586.30;;;14.50;81.00;;;;;;5007966;28;20054;-59
2023/08/29 07:28:11;;;;;;;673.67;608.63;;;14.60;81.10;;;;;;4993165;28;20042;-59
2023/08/29 07:30:48;;;;;;;633.38;577.95;;;14.70;81.40;;;;;;5007724;28;20054;-60
2023/08/29 07:33:18;;;;;;;619.03;564.35;;;14.70;81.10;;;;;;4990904;28;20556;-59
2023/08/29 07:35:45;;;;;;;613.88;564.17;;;14.80;80.90;;;;;;5009214;28;20053;-59
2023/08/29 07:38:12;;;;;;;585.00;538.17;;;14.80;80.90;;;;;;4993229;28;20124;-59
2023/08/29 07:40:38;;;;;;;663.55;604.17;;;14.80;81.00;;;;;;5003182;28;20511;-60
2023/08/29 07:43:06;;;;;;;617.70;567.72;;;14.90;81.10;;;;;;5008235;28;20077;-60
2023/08/29 07:45:32;;;;;;;668.33;608.85;;;14.90;81.20;;;;;;5007184;28;20057;-59
2023/08/29 07:47:58;;;;;;;697.97;633.63;;;14.90;81.20;;;;;;4987922;28;20049;-60
2023/08/29 07:50:24;;;;;;;686.50;622.75;;;15.00;81.00;;;;;;5002135;28;20075;-60
2023/08/29 07:52:50;;;;;;;647.35;592.58;;;15.00;81.00;;;;;;4987026;28;20393;-60
2023/08/29 07:55:16;;;;;;;637.03;586.22;;;15.00;80.50;;;;;;4991136;28;20056;-59
2023/08/29 07:57:42;;;;;;;610.15;560.35;;;15.00;80.10;;;;;;4983279;28;20061;-59
2023/08/29 08:00:10;;;;;;;712.33;643.90;;;15.10;80.30;;;;;;4997868;28;20600;-60
2023/08/29 08:02:39;;;;;;;687.08;629.10;;;15.20;80.20;;;;;;4990383;28;20043;-59
2023/08/29 08:05:14;;;;;;;667.65;609.72;;;15.20;79.50;;;;;;4984378;28;20050;-60
2023/08/29 08:07:41;;;;;;;657.20;603.35;;;15.20;78.60;;;;;;4972999;28;20543;-60
2023/08/29 08:10:07;;;;;;;631.35;576.63;;;15.30;79.30;;;;;;4990519;28;20050;-59
2023/08/29 08:12:34;;;;;;;656.42;600.97;;;15.30;79.50;;;;;;4985042;28;20061;-60
2023/08/29 08:15:00;;;;;;;698.28;634.58;;;15.40;79.70;;;;;;4993413;28;20042;-60
2023/08/29 08:17:26;;;;;;;596.83;547.40;;;15.50;79.30;;;;;;4969788;28;20449;-59
2023/08/29 08:19:52;;;;;;;604.28;554.58;;;15.50;79.40;;;;;;4987953;28;20466;-59
2023/08/29 08:22:18;;;;;;;739.53;668.10;;;15.60;79.40;;;;;;4990691;28;20856;-60
2023/08/29 08:24:43;;;;;;;710.42;647.75;;;15.60;79.20;;;;;;4986387;28;20132;-59
2023/08/29 08:27:09;;;;;;;642.63;591.22;;;15.70;79.20;;;;;;4977669;28;20085;-59
2023/08/29 08:29:35;;;;;;;593.05;546.47;;;15.80;79.00;;;;;;4988311;28;20046;-60
2023/08/29 08:32:01;;;;;;;719.25;657.70;;;15.80;79.20;;;;;;4990479;28;20053;-60
2023/08/29 08:34:26;;;;;;;632.42;581.10;;;15.80;79.40;;;;;;4989115;28;20061;-60
2023/08/29 08:36:52;;;;;;;686.20;629.08;;;16.00;79.40;;;;;;4979553;28;20086;-60
2023/08/29 08:39:18;;;;;;;659.92;605.45;;;16.00;79.40;;;;;;4990281;28;20049;-60
2023/08/29 08:41:44;;;;;;;632.70;582.08;;;16.10;79.00;;;;;;4995555;28;20112;-60
2023/08/29 08:44:12;;;;;;;713.40;653.58;;;16.10;78.80;;;;;;5004034;28;20081;-59
2023/08/29 08:46:39;;;;;;;722.97;659.40;;;16.20;78.60;;;;;;4978141;28;20050;-60
2023/08/29 08:49:06;;;;;;;719.08;656.67;;;16.30;78.70;;;;;;4982811;28;20050;-60
2023/08/29 08:51:34;;;;;;;762.47;693.33;;;16.40;78.70;;;;;;4986573;28;20089;-60
2023/08/29 08:54:00;;;;;;;667.28;612.58;;;16.40;78.30;;;;;;4985555;28;20034;-60
2023/08/29 08:56:28;;;;;;;681.25;626.88;;;16.50;78.20;;;;;;4980311;28;20675;-60
2023/08/29 08:58:54;;;;;;;643.42;592.35;;;16.50;78.20;;;;;;4983524;28;20042;-60
2023/08/29 09:01:20;;;;;;;686.65;628.95;;;16.50;78.30;;;;;;4985306;28;20046;-60
2023/08/29 09:03:46;;;;;;;731.10;667.55;;;16.60;78.20;;;;;;4984527;28;20046;-62
2023/08/29 09:06:15;;;;;;;666.55;609.63;;;16.60;77.00;;;;;;4985203;28;20046;-60
2023/08/29 09:08:41;;;;;;;723.35;657.25;;;16.60;77.40;;;;;;4984559;28;20054;-60
2023/08/29 09:11:06;;;;;;;663.92;610.25;;;16.70;77.60;;;;;;4994193;28;20057;-60
2023/08/29 09:13:32;;;;;;;692.65;633.30;;;16.80;76.40;;;;;;4988606;28;20398;-60
2023/08/29 09:15:59;;;;;;;741.70;675.17;;;16.80;76.20;;;;;;4984675;28;20105;-60
2023/08/29 09:18:32;;;;;;;718.88;656.20;;;16.80;75.90;;;;;;4975108;28;20054;-60
2023/08/29 09:21:01;;;;;;;675.92;619.95;;;16.80;75.50;;;;;;4987218;28;20053;-60
2023/08/29 09:23:29;;;;;;;662.47;609.17;;;16.90;75.60;;;;;;4993556;28;20062;-60
2023/08/29 09:25:56;;;;;;;726.03;663.92;;;16.90;75.40;;;;;;4985588;28;20062;-60
2023/08/29 09:28:27;;;;;;;660.70;604.28;;;16.90;75.10;;;;;;4979199;28;20046;-60
2023/08/29 09:30:53;;;;;;;676.35;619.70;;;17.00;75.20;;;;;;5008125;28;20099;-60
2023/08/29 09:33:21;;;;;;;752.42;684.28;;;17.00;75.10;;;;;;5000338;28;20060;-60
2023/08/29 09:35:50;;;;;;;769.85;698.15;;;17.10;75.50;;;;;;4998396;28;20112;-60
2023/08/29 09:38:20;;;;;;;652.22;600.47;;;17.20;75.00;;;;;;4983220;28;20072;-60
2023/08/29 09:40:50;;;;;;;723.67;657.08;;;17.20;74.30;;;;;;4992619;28;20046;-60
2023/08/29 09:43:16;;;;;;;705.40;641.67;;;17.10;74.20;;;;;;5003070;28;20124;-59
2023/08/29 09:45:48;;;;;;;727.90;661.90;;;17.10;74.70;;;;;;4989850;28;20050;-60
2023/08/29 09:48:13;;;;;;;;;;;17.10;74.80;;;;;;4968969;28;20096;-60
2023/08/29 09:50:41;;;;;;;628.53;576.33;;;17.20;74.20;;;;;;4995740;28;19925;-60
2023/08/29 09:53:08;;;;;;;776.63;705.33;;;17.20;75.20;;;;;;4988981;28;20050;-60
2023/08/29 09:55:43;;;;;;;791.97;718.45;;;17.20;74.40;;;;;;5006923;28;20046;-59
2023/08/29 09:58:11;;;;;;;743.10;675.13;;;17.20;74.40;;;;;;4973895;28;20101;-60
2023/08/29 10:00:38;;;;;;;713.67;647.05;;;17.20;74.60;;;;;;4992903;28;20155;-60
2023/08/29 10:03:08;;;;;;;735.08;669.38;;;17.30;74.90;;;;;;4988463;28;20054;-60
2023/08/29 10:05:36;;;;;;;736.97;668.53;;;17.40;75.20;;;;;;4993536;28;20164;-60
2023/08/29 10:08:27;;;;;;;819.78;736.28;;;17.50;74.00;;;;;;4972741;28;20120;-59
2023/08/29 10:10:56;;;;;;;694.92;631.53;;;17.50;73.20;;;;;;4993575;28;20061;-61
2023/08/29 10:13:24;;;;;;;798.70;724.25;;;17.50;73.20;;;;;;4985832;28;20050;-60
2023/08/29 10:15:51;;;;;;;730.10;665.42;;;17.50;73.40;;;;;;4988401;28;20390;-60
2023/08/29 10:18:19;;;;;;;760.80;688.65;;;17.50;73.80;;;;;;4976657;28;20535;-60
2023/08/29 10:20:46;;;;;;;731.13;663.83;;;17.60;73.30;;;;;;5004106;28;20517;-59
2023/08/29 10:23:15;;;;;;;799.05;723.63;;;17.60;73.50;;;;;;4988398;28;20058;-60
2023/08/29 10:25:42;;;;;;;720.63;657.78;;;17.70;73.80;;;;;;4988139;28;20532;-60
2023/08/29 10:28:10;;;;;;;736.78;671.85;;;17.80;73.70;;;;;;4971459;28;20075;-60
2023/08/29 10:30:40;;;;;;;714.53;651.95;;;17.80;72.90;;;;;;4987355;28;20080;-60
2023/08/29 10:33:07;;;;;;;814.22;736.53;;;17.80;73.20;;;;;;4992459;28;20046;-60
2023/08/29 10:35:33;;;;;;;773.47;700.92;;;17.80;73.20;;;;;;4991751;28;20334;-60
2023/08/29 10:38:15;;;;;;;855.20;770.67;;;17.80;73.60;;;;;;4972769;28;20396;-60
2023/08/29 10:40:42;;;;;;;755.63;684.33;;;17.80;73.10;;;;;;4995127;28;20042;-60
2023/08/29 10:43:24;;;;;;;910.03;813.03;;;17.80;73.20;;;;;;4990719;28;20052;-60
2023/08/29 10:46:01;;;;;;;707.55;645.97;;;17.80;72.20;;;;;;4988216;28;20133;-60
2023/08/29 10:48:30;;;;;;;827.70;739.95;;;17.90;72.90;;;;;;4982539;28;20145;-60
2023/08/29 10:51:12;;;;;;;788.55;707.60;;;18.00;72.30;;;;;;4988972;28;20050;-60
2023/08/29 10:53:52;;;;;;;815.38;732.15;;;18.00;71.60;;;;;;5002078;28;20077;-60
2023/08/29 10:56:23;;;;;;;656.35;601.28;;;18.00;71.90;;;;;;4978654;28;20527;-60
2023/08/29 10:58:49;;;;;;;802.83;721.75;;;18.10;72.10;;;;;;4989629;28;20062;-60
2023/08/29 11:01:24;;;;;;;817.88;743.30;;;18.20;71.80;;;;;;4988845;28;20062;-60
2023/08/29 11:03:51;;;;;;;803.58;730.13;;;18.30;70.30;;;;;;4993288;28;20062;-59
2023/08/29 11:06:25;;;;;;;684.30;623.78;;;18.30;70.70;;;;;;4979499;28;20663;-60
2023/08/29 11:09:10;;;;;;;810.55;736.53;;;18.40;70.50;;;;;;4994680;28;20057;-60
2023/08/29 11:11:36;;;;;;;895.75;799.38;;;18.40;70.70;;;;;;4983677;28;20060;-60
2023/08/29 11:14:04;;;;;;;783.83;708.00;;;18.40;69.50;;;;;;4994040;28;20458;-60
2023/08/29 11:16:37;;;;;;;785.40;705.30;;;18.40;69.20;;;;;;4976866;28;20046;-60
2023/08/29 11:19:03;;;;;;;954.63;847.05;;;18.40;69.30;;;;;;4983100;28;20043;-60
2023/08/29 11:21:30;;;;;;;904.85;814.92;;;18.50;69.30;;;;;;4986669;28;20054;-60
2023/08/29 11:23:58;;;;;;;900.40;808.60;;;18.50;69.10;;;;;;4999174;28;20053;-59
2023/08/29 11:26:25;;;;;;;830.30;752.05;;;18.50;68.90;;;;;;4978748;28;20496;-60
2023/08/29 11:28:51;;;;;;;937.67;838.90;;;18.40;69.00;;;;;;4982331;28;20108;-60
2023/08/29 11:31:18;;;;;;;922.00;826.08;;;18.40;68.70;;;;;;4990754;28;20085;-60
2023/08/29 11:33:48;;;;;;;815.13;727.78;;;18.40;68.60;;;;;;4991097;28;20050;-60
2023/08/29 11:36:15;;;;;;;938.47;837.67;;;18.30;68.70;;;;;;4982889;28;20082;-60
2023/08/29 11:38:43;;;;;;;832.85;752.30;;;18.30;68.60;;;;;;4983567;28;20050;-60
2023/08/29 11:41:10;;;;;;;788.38;708.78;;;18.30;68.80;;;;;;4994612;28;20412;-60
2023/08/29 11:43:36;;;;;;;717.28;654.15;;;18.30;69.20;;;;;;4984914;28;20053;-60
2023/08/29 11:46:06;;;;;;;899.25;811.85;;;18.30;69.60;;;;;;4988668;28;20088;-60
2023/08/29 11:48:33;;;;;;;856.70;769.58;;;18.30;69.20;;;;;;4979993;28;20134;-60
2023/08/29 11:51:01;;;;;;;789.33;709.42;;;18.30;68.90;;;;;;4990794;28;20050;-60
2023/08/29 11:53:35;;;;;;;812.15;737.83;;;18.30;69.00;;;;;;4989386;28;20042;-60
2023/08/29 11:56:03;;;;;;;807.22;733.50;;;18.30;69.20;;;;;;4986343;28;20134;-59
2023/08/29 11:58:31;;;;;;;787.50;710.30;;;18.40;70.00;;;;;;4971352;28;20081;-60
2023/08/29 12:00:58;;;;;;;791.20;721.78;;;18.40;70.10;;;;;;4986414;28;20093;-60
2023/08/29 12:03:27;;;;;;;812.53;735.90;;;18.50;70.20;;;;;;4995052;28;20062;-60
2023/08/29 12:05:57;;;;;;;829.60;753.90;;;18.50;70.60;;;;;;4989713;28;20057;-60
2023/08/29 12:08:40;;;;;;;826.17;750.83;;;18.50;69.80;;;;;;4970092;28;20081;-60
2023/08/29 12:11:07;;;;;;;816.67;743.15;;;18.50;69.00;;;;;;5003293;28;21473;-60
2023/08/29 12:13:37;;;;;;;823.97;735.97;;;18.60;69.60;;;;;;4989027;28;20057;-60